sensor_id;sensor_type;location;lat;lon;timestamp;P1;durP1;ratioP1;P2;durP2;ratioP2
69625;SDS011;56847;51.984;5.088;2023-02-04T00:00:17;34.97;;;4.90;;
69625;SDS011;56847;51.984;5.088;2023-02-04T00:02:46;27.05;;;5.05;;
69625;SDS011;56847;51.984;5.088;2023-02-04T00:05:13;31.55;;;5.55;;
69625;SDS011;56847;51.984;5.088;2023-02-04T00:07:42;34.03;;;5.10;;
69625;SDS011;56847;51.984;5.088;2023-02-04T00:10:09;29.88;;;4.80;;
69625;SDS011;56847;51.984;5.088;2023-02-04T00:12:36;28.42;;;4.70;;
69625;SDS011;56847;51.984;5.088;2023-02-04T00:15:03;33.25;;;4.80;;
69625;SDS011;56847;51.984;5.088;2023-02-04T00:17:31;38.33;;;4.85;;
69625;SDS011;56847;51.984;5.088;2023-02-04T00:19:58;28.13;;;4.40;;
69625;SDS011;56847;51.984;5.088;2023-02-04T00:22:26;39.38;;;6.25;;
69625;SDS011;56847;51.984;5.088;2023-02-04T00:24:54;36.50;;;6.20;;
69625;SDS011;56847;51.984;5.088;2023-02-04T00:27:25;26.05;;;4.57;;
69625;SDS011;56847;51.984;5.088;2023-02-04T00:29:53;30.15;;;4.43;;
69625;SDS011;56847;51.984;5.088;2023-02-04T00:32:19;41.47;;;6.87;;
69625;SDS011;56847;51.984;5.088;2023-02-04T00:34:46;37.08;;;5.53;;
69625;SDS011;56847;51.984;5.088;2023-02-04T00:37:13;38.75;;;4.80;;
69625;SDS011;56847;51.984;5.088;2023-02-04T00:39:40;35.63;;;5.50;;
69625;SDS011;56847;51.984;5.088;2023-02-04T00:42:07;40.22;;;5.28;;
69625;SDS011;56847;51.984;5.088;2023-02-04T00:44:34;36.87;;;5.20;;
69625;SDS011;56847;51.984;5.088;2023-02-04T00:47:02;42.83;;;5.20;;
69625;SDS011;56847;51.984;5.088;2023-02-04T00:49:30;41.47;;;5.43;;
69625;SDS011;56847;51.984;5.088;2023-02-04T00:51:58;35.10;;;5.03;;
69625;SDS011;56847;51.984;5.088;2023-02-04T00:54:25;38.47;;;4.95;;
69625;SDS011;56847;51.984;5.088;2023-02-04T00:56:52;38.10;;;4.77;;
69625;SDS011;56847;51.984;5.088;2023-02-04T00:59:19;37.80;;;5.10;;
69625;SDS011;56847;51.984;5.088;2023-02-04T01:01:46;44.13;;;5.70;;
69625;SDS011;56847;51.984;5.088;2023-02-04T01:04:13;47.45;;;6.22;;
69625;SDS011;56847;51.984;5.088;2023-02-04T01:06:40;34.92;;;5.53;;
69625;SDS011;56847;51.984;5.088;2023-02-04T01:09:08;50.50;;;5.80;;
69625;SDS011;56847;51.984;5.088;2023-02-04T01:11:35;45.35;;;6.03;;
69625;SDS011;56847;51.984;5.088;2023-02-04T01:14:02;43.40;;;5.45;;
69625;SDS011;56847;51.984;5.088;2023-02-04T01:16:30;42.33;;;5.40;;
69625;SDS011;56847;51.984;5.088;2023-02-04T01:18:57;37.50;;;6.10;;
69625;SDS011;56847;51.984;5.088;2023-02-04T01:21:25;31.47;;;4.97;;
69625;SDS011;56847;51.984;5.088;2023-02-04T01:23:52;40.70;;;5.93;;
69625;SDS011;56847;51.984;5.088;2023-02-04T01:26:20;43.25;;;5.35;;
69625;SDS011;56847;51.984;5.088;2023-02-04T01:28:47;49.10;;;5.55;;
69625;SDS011;56847;51.984;5.088;2023-02-04T01:31:14;39.45;;;5.40;;
69625;SDS011;56847;51.984;5.088;2023-02-04T01:33:42;40.30;;;6.17;;
69625;SDS011;56847;51.984;5.088;2023-02-04T01:36:10;35.40;;;5.20;;
69625;SDS011;56847;51.984;5.088;2023-02-04T01:38:37;49.00;;;5.57;;
69625;SDS011;56847;51.984;5.088;2023-02-04T01:41:04;45.78;;;5.35;;
69625;SDS011;56847;51.984;5.088;2023-02-04T01:43:32;45.63;;;6.05;;
69625;SDS011;56847;51.984;5.088;2023-02-04T01:45:59;36.43;;;5.23;;
69625;SDS011;56847;51.984;5.088;2023-02-04T01:48:28;42.33;;;5.57;;
69625;SDS011;56847;51.984;5.088;2023-02-04T01:51:05;52.22;;;6.00;;
69625;SDS011;56847;51.984;5.088;2023-02-04T01:53:34;37.20;;;5.88;;
69625;SDS011;56847;51.984;5.088;2023-02-04T01:56:10;39.80;;;4.90;;
69625;SDS011;56847;51.984;5.088;2023-02-04T01:58:44;42.70;;;5.50;;
69625;SDS011;56847;51.984;5.088;2023-02-04T02:01:13;37.42;;;5.75;;
69625;SDS011;56847;51.984;5.088;2023-02-04T02:03:59;49.22;;;5.63;;
69625;SDS011;56847;51.984;5.088;2023-02-04T02:06:27;50.40;;;5.50;;
69625;SDS011;56847;51.984;5.088;2023-02-04T02:08:54;46.88;;;6.57;;
69625;SDS011;56847;51.984;5.088;2023-02-04T02:11:21;50.20;;;6.23;;
69625;SDS011;56847;51.984;5.088;2023-02-04T02:13:48;43.35;;;6.55;;
69625;SDS011;56847;51.984;5.088;2023-02-04T02:16:15;54.40;;;6.43;;
69625;SDS011;56847;51.984;5.088;2023-02-04T02:18:44;40.83;;;6.30;;
69625;SDS011;56847;51.984;5.088;2023-02-04T02:21:11;45.33;;;4.85;;
69625;SDS011;56847;51.984;5.088;2023-02-04T02:23:51;47.10;;;5.70;;
69625;SDS011;56847;51.984;5.088;2023-02-04T02:26:20;52.17;;;5.60;;
69625;SDS011;56847;51.984;5.088;2023-02-04T02:28:49;33.00;;;5.20;;
69625;SDS011;56847;51.984;5.088;2023-02-04T02:31:18;53.83;;;6.05;;
69625;SDS011;56847;51.984;5.088;2023-02-04T02:33:46;51.25;;;6.10;;
69625;SDS011;56847;51.984;5.088;2023-02-04T02:36:14;46.60;;;6.33;;
69625;SDS011;56847;51.984;5.088;2023-02-04T02:38:42;43.33;;;5.75;;
69625;SDS011;56847;51.984;5.088;2023-02-04T02:41:09;36.33;;;5.43;;
69625;SDS011;56847;51.984;5.088;2023-02-04T02:43:37;44.78;;;5.95;;
69625;SDS011;56847;51.984;5.088;2023-02-04T02:46:05;52.00;;;5.95;;
69625;SDS011;56847;51.984;5.088;2023-02-04T02:48:32;48.37;;;6.60;;
69625;SDS011;56847;51.984;5.088;2023-02-04T02:50:59;45.25;;;5.97;;
69625;SDS011;56847;51.984;5.088;2023-02-04T02:53:26;45.25;;;5.40;;
69625;SDS011;56847;51.984;5.088;2023-02-04T02:55:53;50.47;;;6.35;;
69625;SDS011;56847;51.984;5.088;2023-02-04T02:58:23;49.63;;;6.15;;
69625;SDS011;56847;51.984;5.088;2023-02-04T03:00:54;49.80;;;6.20;;
69625;SDS011;56847;51.984;5.088;2023-02-04T03:03:24;55.20;;;6.13;;
69625;SDS011;56847;51.984;5.088;2023-02-04T03:05:54;38.40;;;5.43;;
69625;SDS011;56847;51.984;5.088;2023-02-04T03:08:26;55.45;;;7.20;;
69625;SDS011;56847;51.984;5.088;2023-02-04T03:10:53;58.30;;;6.57;;
69625;SDS011;56847;51.984;5.088;2023-02-04T03:13:20;44.27;;;6.00;;
69625;SDS011;56847;51.984;5.088;2023-02-04T03:15:49;50.38;;;6.50;;
69625;SDS011;56847;51.984;5.088;2023-02-04T03:18:17;53.10;;;6.32;;
69625;SDS011;56847;51.984;5.088;2023-02-04T03:20:46;46.42;;;6.90;;
69625;SDS011;56847;51.984;5.088;2023-02-04T03:23:15;40.55;;;6.70;;
69625;SDS011;56847;51.984;5.088;2023-02-04T03:25:42;48.27;;;6.90;;
69625;SDS011;56847;51.984;5.088;2023-02-04T03:28:09;51.50;;;6.45;;
69625;SDS011;56847;51.984;5.088;2023-02-04T03:30:36;51.38;;;6.32;;
69625;SDS011;56847;51.984;5.088;2023-02-04T03:33:03;47.72;;;6.93;;
69625;SDS011;56847;51.984;5.088;2023-02-04T03:35:30;46.95;;;6.55;;
69625;SDS011;56847;51.984;5.088;2023-02-04T03:37:57;43.00;;;6.13;;
69625;SDS011;56847;51.984;5.088;2023-02-04T03:40:24;45.88;;;6.15;;
69625;SDS011;56847;51.984;5.088;2023-02-04T03:42:50;55.00;;;6.88;;
69625;SDS011;56847;51.984;5.088;2023-02-04T03:45:17;47.92;;;6.72;;
69625;SDS011;56847;51.984;5.088;2023-02-04T03:47:45;37.35;;;6.00;;
69625;SDS011;56847;51.984;5.088;2023-02-04T03:50:12;57.60;;;7.43;;
69625;SDS011;56847;51.984;5.088;2023-02-04T03:52:39;48.95;;;7.18;;
69625;SDS011;56847;51.984;5.088;2023-02-04T03:55:06;48.65;;;6.35;;
69625;SDS011;56847;51.984;5.088;2023-02-04T03:57:35;38.40;;;5.25;;
69625;SDS011;56847;51.984;5.088;2023-02-04T04:00:02;40.47;;;6.57;;
69625;SDS011;56847;51.984;5.088;2023-02-04T04:02:36;34.57;;;6.17;;
69625;SDS011;56847;51.984;5.088;2023-02-04T04:05:04;33.58;;;6.03;;
69625;SDS011;56847;51.984;5.088;2023-02-04T04:07:31;46.65;;;5.90;;
69625;SDS011;56847;51.984;5.088;2023-02-04T04:09:58;38.17;;;5.70;;
69625;SDS011;56847;51.984;5.088;2023-02-04T04:12:25;43.05;;;6.72;;
69625;SDS011;56847;51.984;5.088;2023-02-04T04:14:52;45.70;;;7.00;;
69625;SDS011;56847;51.984;5.088;2023-02-04T04:17:18;49.67;;;6.45;;
69625;SDS011;56847;51.984;5.088;2023-02-04T04:19:45;37.00;;;5.05;;
69625;SDS011;56847;51.984;5.088;2023-02-04T04:22:14;42.90;;;6.88;;
69625;SDS011;56847;51.984;5.088;2023-02-04T04:24:41;37.42;;;5.88;;
69625;SDS011;56847;51.984;5.088;2023-02-04T04:27:08;32.93;;;6.20;;
69625;SDS011;56847;51.984;5.088;2023-02-04T04:29:37;48.13;;;6.43;;
69625;SDS011;56847;51.984;5.088;2023-02-04T04:32:04;42.60;;;5.65;;
69625;SDS011;56847;51.984;5.088;2023-02-04T04:34:31;44.83;;;6.38;;
69625;SDS011;56847;51.984;5.088;2023-02-04T04:36:57;39.28;;;5.60;;
69625;SDS011;56847;51.984;5.088;2023-02-04T04:39:24;31.67;;;5.80;;
69625;SDS011;56847;51.984;5.088;2023-02-04T04:41:51;38.05;;;5.53;;
69625;SDS011;56847;51.984;5.088;2023-02-04T04:44:18;43.10;;;5.03;;
69625;SDS011;56847;51.984;5.088;2023-02-04T04:46:45;45.40;;;6.00;;
69625;SDS011;56847;51.984;5.088;2023-02-04T04:49:12;35.55;;;6.47;;
69625;SDS011;56847;51.984;5.088;2023-02-04T04:51:39;33.83;;;6.00;;
69625;SDS011;56847;51.984;5.088;2023-02-04T04:54:06;44.28;;;6.93;;
69625;SDS011;56847;51.984;5.088;2023-02-04T04:56:33;38.97;;;6.93;;
69625;SDS011;56847;51.984;5.088;2023-02-04T04:59:00;42.72;;;7.50;;
69625;SDS011;56847;51.984;5.088;2023-02-04T05:01:28;42.17;;;6.18;;
69625;SDS011;56847;51.984;5.088;2023-02-04T05:03:55;41.47;;;6.97;;
69625;SDS011;56847;51.984;5.088;2023-02-04T05:06:22;35.25;;;6.18;;
69625;SDS011;56847;51.984;5.088;2023-02-04T05:08:53;41.45;;;6.93;;
69625;SDS011;56847;51.984;5.088;2023-02-04T05:11:20;40.28;;;6.95;;
69625;SDS011;56847;51.984;5.088;2023-02-04T05:13:47;47.85;;;7.15;;
69625;SDS011;56847;51.984;5.088;2023-02-04T05:16:13;44.13;;;6.47;;
69625;SDS011;56847;51.984;5.088;2023-02-04T05:18:41;36.90;;;6.30;;
69625;SDS011;56847;51.984;5.088;2023-02-04T05:21:08;71.28;;;6.40;;
69625;SDS011;56847;51.984;5.088;2023-02-04T05:23:35;51.58;;;6.60;;
69625;SDS011;56847;51.984;5.088;2023-02-04T05:26:02;54.22;;;7.68;;
69625;SDS011;56847;51.984;5.088;2023-02-04T05:28:29;48.67;;;7.03;;
69625;SDS011;56847;51.984;5.088;2023-02-04T05:30:56;66.55;;;7.22;;
69625;SDS011;56847;51.984;5.088;2023-02-04T05:33:23;81.93;;;7.55;;
69625;SDS011;56847;51.984;5.088;2023-02-04T05:35:50;120.50;;;7.20;;
69625;SDS011;56847;51.984;5.088;2023-02-04T05:38:16;154.93;;;9.55;;
69625;SDS011;56847;51.984;5.088;2023-02-04T05:40:43;143.37;;;9.17;;
69625;SDS011;56847;51.984;5.088;2023-02-04T05:43:10;90.53;;;8.00;;
69625;SDS011;56847;51.984;5.088;2023-02-04T05:45:37;60.85;;;7.90;;
69625;SDS011;56847;51.984;5.088;2023-02-04T05:48:04;58.90;;;8.10;;
69625;SDS011;56847;51.984;5.088;2023-02-04T05:50:31;52.55;;;8.00;;
69625;SDS011;56847;51.984;5.088;2023-02-04T05:53:07;68.83;;;8.80;;
69625;SDS011;56847;51.984;5.088;2023-02-04T05:55:35;43.45;;;7.18;;
69625;SDS011;56847;51.984;5.088;2023-02-04T05:58:01;29.02;;;7.00;;
69625;SDS011;56847;51.984;5.088;2023-02-04T06:00:28;31.92;;;6.93;;
69625;SDS011;56847;51.984;5.088;2023-02-04T06:02:56;36.00;;;7.72;;
69625;SDS011;56847;51.984;5.088;2023-02-04T06:05:22;33.10;;;7.13;;
69625;SDS011;56847;51.984;5.088;2023-02-04T06:07:49;37.42;;;7.13;;
69625;SDS011;56847;51.984;5.088;2023-02-04T06:10:16;31.58;;;7.07;;
69625;SDS011;56847;51.984;5.088;2023-02-04T06:12:43;34.45;;;7.45;;
69625;SDS011;56847;51.984;5.088;2023-02-04T06:15:10;28.80;;;7.40;;
69625;SDS011;56847;51.984;5.088;2023-02-04T06:17:38;36.17;;;6.97;;
69625;SDS011;56847;51.984;5.088;2023-02-04T06:20:06;39.58;;;7.28;;
69625;SDS011;56847;51.984;5.088;2023-02-04T06:22:34;34.63;;;7.15;;
69625;SDS011;56847;51.984;5.088;2023-02-04T06:25:00;29.60;;;7.38;;
69625;SDS011;56847;51.984;5.088;2023-02-04T06:27:27;27.42;;;7.03;;
69625;SDS011;56847;51.984;5.088;2023-02-04T06:29:54;32.07;;;6.53;;
69625;SDS011;56847;51.984;5.088;2023-02-04T06:32:22;37.30;;;6.63;;
69625;SDS011;56847;51.984;5.088;2023-02-04T06:34:49;33.60;;;6.88;;
69625;SDS011;56847;51.984;5.088;2023-02-04T06:37:16;33.80;;;7.22;;
69625;SDS011;56847;51.984;5.088;2023-02-04T06:39:43;33.97;;;7.05;;
69625;SDS011;56847;51.984;5.088;2023-02-04T06:42:10;33.43;;;6.67;;
69625;SDS011;56847;51.984;5.088;2023-02-04T06:44:37;35.00;;;7.18;;
69625;SDS011;56847;51.984;5.088;2023-02-04T06:47:04;31.92;;;6.53;;
69625;SDS011;56847;51.984;5.088;2023-02-04T06:49:31;43.05;;;7.75;;
69625;SDS011;56847;51.984;5.088;2023-02-04T06:51:58;50.63;;;7.45;;
69625;SDS011;56847;51.984;5.088;2023-02-04T06:54:25;35.43;;;7.50;;
69625;SDS011;56847;51.984;5.088;2023-02-04T06:56:52;32.28;;;6.95;;
69625;SDS011;56847;51.984;5.088;2023-02-04T06:59:22;35.83;;;6.65;;
69625;SDS011;56847;51.984;5.088;2023-02-04T07:01:50;38.22;;;7.90;;
69625;SDS011;56847;51.984;5.088;2023-02-04T07:04:17;39.70;;;7.53;;
69625;SDS011;56847;51.984;5.088;2023-02-04T07:06:45;33.60;;;7.20;;
69625;SDS011;56847;51.984;5.088;2023-02-04T07:09:14;34.30;;;7.40;;
69625;SDS011;56847;51.984;5.088;2023-02-04T07:11:41;33.50;;;7.15;;
69625;SDS011;56847;51.984;5.088;2023-02-04T07:14:08;34.42;;;7.80;;
69625;SDS011;56847;51.984;5.088;2023-02-04T07:16:38;37.03;;;7.43;;
69625;SDS011;56847;51.984;5.088;2023-02-04T07:19:05;27.43;;;6.67;;
69625;SDS011;56847;51.984;5.088;2023-02-04T07:21:32;30.35;;;7.18;;
69625;SDS011;56847;51.984;5.088;2023-02-04T07:23:59;29.75;;;7.30;;
69625;SDS011;56847;51.984;5.088;2023-02-04T07:26:26;27.23;;;7.55;;
69625;SDS011;56847;51.984;5.088;2023-02-04T07:28:52;29.08;;;7.13;;
69625;SDS011;56847;51.984;5.088;2023-02-04T07:31:20;38.17;;;7.87;;
69625;SDS011;56847;51.984;5.088;2023-02-04T07:33:48;31.50;;;7.75;;
69625;SDS011;56847;51.984;5.088;2023-02-04T07:36:15;43.72;;;8.10;;
69625;SDS011;56847;51.984;5.088;2023-02-04T07:38:42;40.30;;;8.32;;
69625;SDS011;56847;51.984;5.088;2023-02-04T07:41:09;36.92;;;8.60;;
69625;SDS011;56847;51.984;5.088;2023-02-04T07:43:36;33.47;;;7.13;;
69625;SDS011;56847;51.984;5.088;2023-02-04T07:46:03;31.15;;;8.20;;
69625;SDS011;56847;51.984;5.088;2023-02-04T07:48:32;38.50;;;8.40;;
69625;SDS011;56847;51.984;5.088;2023-02-04T07:50:59;35.22;;;8.18;;
69625;SDS011;56847;51.984;5.088;2023-02-04T07:53:26;42.60;;;9.00;;
69625;SDS011;56847;51.984;5.088;2023-02-04T07:55:53;50.87;;;9.70;;
69625;SDS011;56847;51.984;5.088;2023-02-04T07:58:20;43.67;;;9.68;;
69625;SDS011;56847;51.984;5.088;2023-02-04T08:00:48;38.05;;;10.30;;
69625;SDS011;56847;51.984;5.088;2023-02-04T08:03:15;35.38;;;8.93;;
69625;SDS011;56847;51.984;5.088;2023-02-04T08:05:42;37.83;;;9.02;;
69625;SDS011;56847;51.984;5.088;2023-02-04T08:08:09;42.50;;;9.47;;
69625;SDS011;56847;51.984;5.088;2023-02-04T08:10:36;39.25;;;8.55;;
69625;SDS011;56847;51.984;5.088;2023-02-04T08:13:04;32.03;;;8.50;;
69625;SDS011;56847;51.984;5.088;2023-02-04T08:15:31;47.35;;;9.52;;
69625;SDS011;56847;51.984;5.088;2023-02-04T08:17:58;33.00;;;8.13;;
69625;SDS011;56847;51.984;5.088;2023-02-04T08:20:25;36.37;;;8.13;;
69625;SDS011;56847;51.984;5.088;2023-02-04T08:22:52;39.35;;;8.95;;
69625;SDS011;56847;51.984;5.088;2023-02-04T08:25:19;41.90;;;8.73;;
69625;SDS011;56847;51.984;5.088;2023-02-04T08:27:47;39.08;;;8.80;;
69625;SDS011;56847;51.984;5.088;2023-02-04T08:30:17;42.90;;;9.43;;
69625;SDS011;56847;51.984;5.088;2023-02-04T08:32:44;36.43;;;9.80;;
69625;SDS011;56847;51.984;5.088;2023-02-04T08:35:12;40.22;;;9.23;;
69625;SDS011;56847;51.984;5.088;2023-02-04T08:37:39;63.47;;;17.83;;
69625;SDS011;56847;51.984;5.088;2023-02-04T08:40:06;52.28;;;14.57;;
69625;SDS011;56847;51.984;5.088;2023-02-04T08:42:36;42.33;;;9.93;;
69625;SDS011;56847;51.984;5.088;2023-02-04T08:45:03;57.83;;;10.83;;
69625;SDS011;56847;51.984;5.088;2023-02-04T08:47:31;44.13;;;9.52;;
69625;SDS011;56847;51.984;5.088;2023-02-04T08:49:58;45.72;;;8.82;;
69625;SDS011;56847;51.984;5.088;2023-02-04T08:52:30;49.97;;;8.60;;
69625;SDS011;56847;51.984;5.088;2023-02-04T08:54:59;52.67;;;9.23;;
69625;SDS011;56847;51.984;5.088;2023-02-04T08:57:31;44.80;;;9.27;;
69625;SDS011;56847;51.984;5.088;2023-02-04T09:00:00;45.22;;;8.77;;
69625;SDS011;56847;51.984;5.088;2023-02-04T09:02:28;48.38;;;8.73;;
69625;SDS011;56847;51.984;5.088;2023-02-04T09:04:55;53.75;;;8.05;;
69625;SDS011;56847;51.984;5.088;2023-02-04T09:07:22;41.13;;;8.35;;
69625;SDS011;56847;51.984;5.088;2023-02-04T09:09:49;42.07;;;8.00;;
69625;SDS011;56847;51.984;5.088;2023-02-04T09:12:15;44.25;;;8.10;;
69625;SDS011;56847;51.984;5.088;2023-02-04T09:14:42;46.97;;;7.95;;
69625;SDS011;56847;51.984;5.088;2023-02-04T09:17:09;42.58;;;7.78;;
69625;SDS011;56847;51.984;5.088;2023-02-04T09:19:36;49.22;;;8.63;;
69625;SDS011;56847;51.984;5.088;2023-02-04T09:22:03;57.20;;;9.93;;
69625;SDS011;56847;51.984;5.088;2023-02-04T09:24:30;53.83;;;9.27;;
69625;SDS011;56847;51.984;5.088;2023-02-04T09:26:57;58.47;;;8.68;;
69625;SDS011;56847;51.984;5.088;2023-02-04T09:29:24;45.35;;;8.35;;
69625;SDS011;56847;51.984;5.088;2023-02-04T09:31:54;45.22;;;9.43;;
69625;SDS011;56847;51.984;5.088;2023-02-04T09:34:25;49.73;;;9.77;;
69625;SDS011;56847;51.984;5.088;2023-02-04T09:36:58;52.45;;;10.20;;
69625;SDS011;56847;51.984;5.088;2023-02-04T09:39:25;45.17;;;10.75;;
69625;SDS011;56847;51.984;5.088;2023-02-04T09:41:52;49.42;;;10.85;;
69625;SDS011;56847;51.984;5.088;2023-02-04T09:44:20;41.50;;;9.88;;
69625;SDS011;56847;51.984;5.088;2023-02-04T09:46:59;53.10;;;11.43;;
69625;SDS011;56847;51.984;5.088;2023-02-04T09:49:26;47.00;;;11.18;;
69625;SDS011;56847;51.984;5.088;2023-02-04T09:51:54;47.17;;;10.73;;
69625;SDS011;56847;51.984;5.088;2023-02-04T09:54:23;43.25;;;10.80;;
69625;SDS011;56847;51.984;5.088;2023-02-04T09:56:51;42.10;;;9.70;;
69625;SDS011;56847;51.984;5.088;2023-02-04T09:59:27;37.73;;;8.73;;
69625;SDS011;56847;51.984;5.088;2023-02-04T10:02:01;38.45;;;8.68;;
69625;SDS011;56847;51.984;5.088;2023-02-04T10:04:36;48.55;;;9.82;;
69625;SDS011;56847;51.984;5.088;2023-02-04T10:07:07;47.90;;;7.85;;
69625;SDS011;56847;51.984;5.088;2023-02-04T10:09:52;37.08;;;8.32;;
69625;SDS011;56847;51.984;5.088;2023-02-04T10:12:20;43.73;;;9.97;;
69625;SDS011;56847;51.984;5.088;2023-02-04T10:14:50;46.80;;;10.18;;
69625;SDS011;56847;51.984;5.088;2023-02-04T10:17:20;46.05;;;9.95;;
69625;SDS011;56847;51.984;5.088;2023-02-04T10:19:51;48.65;;;10.23;;
69625;SDS011;56847;51.984;5.088;2023-02-04T10:22:19;41.05;;;10.07;;
69625;SDS011;56847;51.984;5.088;2023-02-04T10:24:50;44.47;;;9.20;;
69625;SDS011;56847;51.984;5.088;2023-02-04T10:27:17;45.55;;;10.32;;
69625;SDS011;56847;51.984;5.088;2023-02-04T10:29:59;40.63;;;8.15;;
69625;SDS011;56847;51.984;5.088;2023-02-04T10:32:28;57.38;;;15.52;;
69625;SDS011;56847;51.984;5.088;2023-02-04T10:34:59;41.13;;;7.55;;
69625;SDS011;56847;51.984;5.088;2023-02-04T10:37:28;45.37;;;8.53;;
69625;SDS011;56847;51.984;5.088;2023-02-04T10:39:56;42.00;;;12.32;;
69625;SDS011;56847;51.984;5.088;2023-02-04T10:42:27;62.28;;;20.42;;
69625;SDS011;56847;51.984;5.088;2023-02-04T10:44:55;45.95;;;13.15;;
69625;SDS011;56847;51.984;5.088;2023-02-04T10:47:23;40.55;;;8.05;;
69625;SDS011;56847;51.984;5.088;2023-02-04T10:52:31;37.08;;;7.95;;
69625;SDS011;56847;51.984;5.088;2023-02-04T10:55:09;41.45;;;7.57;;
69625;SDS011;56847;51.984;5.088;2023-02-04T10:57:40;39.80;;;9.18;;
69625;SDS011;56847;51.984;5.088;2023-02-04T11:02:57;28.90;;;7.40;;
69625;SDS011;56847;51.984;5.088;2023-02-04T11:05:29;44.47;;;7.57;;
69625;SDS011;56847;51.984;5.088;2023-02-04T11:07:58;41.83;;;6.95;;
69625;SDS011;56847;51.984;5.088;2023-02-04T11:10:30;40.20;;;7.53;;
69625;SDS011;56847;51.984;5.088;2023-02-04T11:13:00;39.05;;;6.65;;
69625;SDS011;56847;51.984;5.088;2023-02-04T11:15:36;39.47;;;7.83;;
69625;SDS011;56847;51.984;5.088;2023-02-04T11:20:47;45.92;;;7.03;;
69625;SDS011;56847;51.984;5.088;2023-02-04T11:26:13;34.72;;;6.15;;
69625;SDS011;56847;51.984;5.088;2023-02-04T11:28:49;42.10;;;8.13;;
69625;SDS011;56847;51.984;5.088;2023-02-04T11:34:52;32.80;;;7.25;;
69625;SDS011;56847;51.984;5.088;2023-02-04T11:39:45;32.10;;;7.20;;
69625;SDS011;56847;51.984;5.088;2023-02-04T11:42:18;36.60;;;8.00;;
69625;SDS011;56847;51.984;5.088;2023-02-04T11:44:57;37.30;;;7.05;;
69625;SDS011;56847;51.984;5.088;2023-02-04T11:47:33;29.70;;;6.18;;
69625;SDS011;56847;51.984;5.088;2023-02-04T11:50:03;39.85;;;6.63;;
69625;SDS011;56847;51.984;5.088;2023-02-04T11:53:04;33.30;;;6.10;;
69625;SDS011;56847;51.984;5.088;2023-02-04T11:55:35;34.40;;;6.57;;
69625;SDS011;56847;51.984;5.088;2023-02-04T11:58:15;35.90;;;6.15;;
69625;SDS011;56847;51.984;5.088;2023-02-04T12:00:44;40.70;;;6.22;;
69625;SDS011;56847;51.984;5.088;2023-02-04T12:03:28;39.45;;;7.72;;
69625;SDS011;56847;51.984;5.088;2023-02-04T12:05:57;38.00;;;6.40;;
69625;SDS011;56847;51.984;5.088;2023-02-04T12:08:32;47.67;;;7.60;;
69625;SDS011;56847;51.984;5.088;2023-02-04T12:11:06;39.38;;;7.45;;
69625;SDS011;56847;51.984;5.088;2023-02-04T12:13:47;42.03;;;8.13;;
69625;SDS011;56847;51.984;5.088;2023-02-04T12:16:16;40.63;;;6.93;;
69625;SDS011;56847;51.984;5.088;2023-02-04T12:18:47;36.58;;;6.88;;
69625;SDS011;56847;51.984;5.088;2023-02-04T12:21:15;39.27;;;7.03;;
69625;SDS011;56847;51.984;5.088;2023-02-04T12:23:47;41.03;;;7.55;;
69625;SDS011;56847;51.984;5.088;2023-02-04T12:26:14;46.33;;;8.00;;
69625;SDS011;56847;51.984;5.088;2023-02-04T12:28:44;40.53;;;6.57;;
69625;SDS011;56847;51.984;5.088;2023-02-04T12:31:11;36.40;;;6.75;;
69625;SDS011;56847;51.984;5.088;2023-02-04T12:33:38;32.63;;;6.17;;
69625;SDS011;56847;51.984;5.088;2023-02-04T12:36:05;44.80;;;7.18;;
69625;SDS011;56847;51.984;5.088;2023-02-04T12:38:33;33.80;;;6.35;;
69625;SDS011;56847;51.984;5.088;2023-02-04T12:41:00;41.95;;;7.95;;
69625;SDS011;56847;51.984;5.088;2023-02-04T12:43:28;37.78;;;8.00;;
69625;SDS011;56847;51.984;5.088;2023-02-04T12:45:55;35.57;;;7.17;;
69625;SDS011;56847;51.984;5.088;2023-02-04T12:48:22;35.92;;;8.27;;
69625;SDS011;56847;51.984;5.088;2023-02-04T12:50:49;30.35;;;6.95;;
69625;SDS011;56847;51.984;5.088;2023-02-04T12:53:18;44.88;;;7.97;;
69625;SDS011;56847;51.984;5.088;2023-02-04T12:55:47;30.45;;;6.60;;
69625;SDS011;56847;51.984;5.088;2023-02-04T12:58:15;31.27;;;6.87;;
69625;SDS011;56847;51.984;5.088;2023-02-04T13:00:42;33.80;;;7.63;;
69625;SDS011;56847;51.984;5.088;2023-02-04T13:03:10;34.30;;;7.68;;
69625;SDS011;56847;51.984;5.088;2023-02-04T13:05:37;19.63;;;6.57;;
69625;SDS011;56847;51.984;5.088;2023-02-04T13:08:05;28.08;;;6.82;;
69625;SDS011;56847;51.984;5.088;2023-02-04T13:10:32;29.83;;;6.60;;
69625;SDS011;56847;51.984;5.088;2023-02-04T13:12:59;21.60;;;6.85;;
69625;SDS011;56847;51.984;5.088;2023-02-04T13:15:30;32.72;;;7.55;;
69625;SDS011;56847;51.984;5.088;2023-02-04T13:17:57;33.53;;;7.38;;
69625;SDS011;56847;51.984;5.088;2023-02-04T13:20:24;33.45;;;7.20;;
69625;SDS011;56847;51.984;5.088;2023-02-04T13:22:55;33.43;;;6.87;;
69625;SDS011;56847;51.984;5.088;2023-02-04T13:25:22;27.75;;;6.63;;
69625;SDS011;56847;51.984;5.088;2023-02-04T13:27:49;19.17;;;4.72;;
69625;SDS011;56847;51.984;5.088;2023-02-04T13:30:16;30.42;;;8.05;;
69625;SDS011;56847;51.984;5.088;2023-02-04T13:32:44;24.05;;;6.38;;
69625;SDS011;56847;51.984;5.088;2023-02-04T13:35:11;15.10;;;4.67;;
69625;SDS011;56847;51.984;5.088;2023-02-04T13:37:41;17.33;;;5.10;;
69625;SDS011;56847;51.984;5.088;2023-02-04T13:40:09;21.80;;;4.88;;
69625;SDS011;56847;51.984;5.088;2023-02-04T13:42:37;24.83;;;6.00;;
69625;SDS011;56847;51.984;5.088;2023-02-04T13:45:06;21.15;;;5.18;;
69625;SDS011;56847;51.984;5.088;2023-02-04T13:47:37;24.33;;;6.50;;
69625;SDS011;56847;51.984;5.088;2023-02-04T13:50:11;21.08;;;5.93;;
69625;SDS011;56847;51.984;5.088;2023-02-04T13:52:41;20.90;;;4.90;;
69625;SDS011;56847;51.984;5.088;2023-02-04T13:55:09;21.85;;;4.90;;
69625;SDS011;56847;51.984;5.088;2023-02-04T13:57:37;24.08;;;4.97;;
69625;SDS011;56847;51.984;5.088;2023-02-04T14:00:12;18.57;;;4.30;;
69625;SDS011;56847;51.984;5.088;2023-02-04T14:02:39;21.48;;;4.22;;
69625;SDS011;56847;51.984;5.088;2023-02-04T14:05:26;20.10;;;4.38;;
69625;SDS011;56847;51.984;5.088;2023-02-04T14:07:53;16.77;;;4.07;;
69625;SDS011;56847;51.984;5.088;2023-02-04T14:10:20;21.90;;;5.13;;
69625;SDS011;56847;51.984;5.088;2023-02-04T14:12:53;20.50;;;5.40;;
69625;SDS011;56847;51.984;5.088;2023-02-04T14:15:20;22.77;;;4.55;;
69625;SDS011;56847;51.984;5.088;2023-02-04T14:17:48;22.75;;;5.80;;
69625;SDS011;56847;51.984;5.088;2023-02-04T14:20:20;28.00;;;9.05;;
69625;SDS011;56847;51.984;5.088;2023-02-04T14:22:47;22.10;;;5.45;;
69625;SDS011;56847;51.984;5.088;2023-02-04T14:25:18;24.07;;;5.77;;
69625;SDS011;56847;51.984;5.088;2023-02-04T14:27:45;24.65;;;7.75;;
69625;SDS011;56847;51.984;5.088;2023-02-04T14:32:44;18.27;;;4.35;;
69625;SDS011;56847;51.984;5.088;2023-02-04T14:35:13;19.35;;;4.43;;
69625;SDS011;56847;51.984;5.088;2023-02-04T14:37:40;19.67;;;4.43;;
69625;SDS011;56847;51.984;5.088;2023-02-04T14:40:09;20.02;;;4.45;;
69625;SDS011;56847;51.984;5.088;2023-02-04T14:42:36;24.15;;;4.57;;
69625;SDS011;56847;51.984;5.088;2023-02-04T14:45:04;23.83;;;4.45;;
69625;SDS011;56847;51.984;5.088;2023-02-04T14:47:35;17.17;;;4.07;;
69625;SDS011;56847;51.984;5.088;2023-02-04T14:50:09;16.57;;;4.37;;
69625;SDS011;56847;51.984;5.088;2023-02-04T14:52:38;19.15;;;4.57;;
69625;SDS011;56847;51.984;5.088;2023-02-04T14:55:06;15.05;;;4.07;;
69625;SDS011;56847;51.984;5.088;2023-02-04T14:57:43;15.63;;;4.05;;
69625;SDS011;56847;51.984;5.088;2023-02-04T15:00:14;14.18;;;3.95;;